createdAt,value
2022-12-13T00:01:55.686Z,89.93
2022-12-13T00:04:26.121Z,90.05
2022-12-13T00:06:56.838Z,90.37
2022-12-13T00:09:27.220Z,90.56
2022-12-13T00:11:57.780Z,90.59
2022-12-13T00:14:28.622Z,90.71
2022-12-13T00:16:58.719Z,90.84
2022-12-13T00:19:28.952Z,91.13
2022-12-13T00:21:59.232Z,91.08
2022-12-13T00:24:29.505Z,91.09
2022-12-13T00:27:00.230Z,91.00
2022-12-13T00:29:30.258Z,90.92
2022-12-13T00:32:01.542Z,90.96
2022-12-13T00:34:32.134Z,91.10
2022-12-13T00:37:02.157Z,90.99
2022-12-13T00:39:32.305Z,91.07
2022-12-13T00:42:03.006Z,90.77
2022-12-13T00:44:33.825Z,90.70
2022-12-13T00:47:04.479Z,90.44
2022-12-13T00:49:34.664Z,90.27
2022-12-13T00:52:05.009Z,90.10
2022-12-13T00:54:35.785Z,89.76
2022-12-13T00:57:05.978Z,89.56
2022-12-13T00:59:36.651Z,89.34
2022-12-13T01:02:07.379Z,89.24
2022-12-13T01:04:37.483Z,89.20
2022-12-13T01:07:08.023Z,89.08
2022-12-13T01:09:38.805Z,89.27
2022-12-13T01:12:09.074Z,89.10
2022-12-13T01:14:39.421Z,89.02
2022-12-13T01:17:10.358Z,88.82
2022-12-13T01:19:40.356Z,88.88
2022-12-13T01:22:11.141Z,89.19
2022-12-13T01:24:41.604Z,89.21
2022-12-13T01:27:12.255Z,89.29
2022-12-13T01:29:43.000Z,89.75
2022-12-13T01:32:13.262Z,89.99
2022-12-13T01:34:43.621Z,92.52
2022-12-13T01:37:14.019Z,91.23
2022-12-13T01:39:44.027Z,90.83
2022-12-13T01:42:14.854Z,90.78
2022-12-13T01:44:45.234Z,90.46
2022-12-13T01:47:15.464Z,90.41
2022-12-13T01:49:45.517Z,90.34
2022-12-13T01:52:15.924Z,90.28
2022-12-13T01:54:46.936Z,90.27
2022-12-13T01:57:17.095Z,90.12
2022-12-13T01:59:47.841Z,90.02
2022-12-13T02:02:18.329Z,90.16
2022-12-13T02:04:49.188Z,90.09
2022-12-13T02:07:22.687Z,90.07
2022-12-13T02:09:50.557Z,90.02
2022-12-13T02:12:21.365Z,90.24
2022-12-13T02:14:51.693Z,90.16
2022-12-13T02:17:22.477Z,90.21
2022-12-13T02:19:52.483Z,90.08
2022-12-13T02:22:23.122Z,90.18
2022-12-13T02:24:53.486Z,90.38
2022-12-13T02:27:30.672Z,90.64
2022-12-13T02:29:53.609Z,90.58
2022-12-13T02:32:24.334Z,90.51
2022-12-13T02:34:55.110Z,90.54
2022-12-13T02:37:25.398Z,90.55
2022-12-13T02:39:55.937Z,90.47
2022-12-13T02:42:26.666Z,90.56
2022-12-13T02:44:57.118Z,90.31
2022-12-13T02:47:27.345Z,89.89
2022-12-13T02:49:57.430Z,89.58
2022-12-13T02:52:27.791Z,89.55
2022-12-13T02:54:58.099Z,89.34
2022-12-13T02:57:28.146Z,89.33
2022-12-13T02:59:58.402Z,89.07
2022-12-13T03:02:31.737Z,89.17
2022-12-13T03:04:59.491Z,88.77
2022-12-13T03:07:29.835Z,88.76
2022-12-13T03:10:00.567Z,88.49
2022-12-13T03:12:30.594Z,88.46
2022-12-13T03:15:01.230Z,88.80
2022-12-13T03:17:31.922Z,93.63
2022-12-13T03:20:02.002Z,92.30
2022-12-13T03:22:32.565Z,90.23
2022-12-13T03:25:03.215Z,89.42
2022-12-13T03:27:34.060Z,89.63
2022-12-13T03:30:04.303Z,89.83
2022-12-13T03:32:35.102Z,89.89
2022-12-13T03:35:05.797Z,89.83
2022-12-13T03:37:36.505Z,89.70
2022-12-13T03:40:07.431Z,89.66
2022-12-13T03:42:38.087Z,89.69
2022-12-13T03:45:08.139Z,89.52
2022-12-13T03:47:38.629Z,89.68
2022-12-13T03:50:26.252Z,89.56
2022-12-13T03:52:39.078Z,89.63
2022-12-13T03:55:09.759Z,89.65
2022-12-13T03:57:40.199Z,89.80
2022-12-13T04:00:10.339Z,89.92
2022-12-13T04:02:41.244Z,89.89
2022-12-13T04:05:11.673Z,89.94
2022-12-13T04:07:48.322Z,89.73
2022-12-13T04:10:26.414Z,89.71
2022-12-13T04:12:48.180Z,89.46
2022-12-13T04:15:14.450Z,89.64
2022-12-13T04:17:44.250Z,89.43
2022-12-13T04:20:14.755Z,89.43
2022-12-13T04:22:45.075Z,89.31
2022-12-13T04:25:15.942Z,89.43
2022-12-13T04:27:46.157Z,89.43
2022-12-13T04:30:16.426Z,89.51
2022-12-13T04:32:46.986Z,89.38
2022-12-13T04:35:17.959Z,89.26
2022-12-13T04:37:48.559Z,89.22
2022-12-13T04:40:21.778Z,89.42
2022-12-13T04:42:49.524Z,89.27
2022-12-13T04:45:20.136Z,89.19
2022-12-13T04:47:50.759Z,88.90
2022-12-13T04:50:20.925Z,88.76
2022-12-13T04:52:51.627Z,88.70
2022-12-13T04:55:21.763Z,88.54
2022-12-13T04:57:52.037Z,88.67
2022-12-13T05:00:22.317Z,88.47
2022-12-13T05:02:52.622Z,88.43
2022-12-13T05:05:22.907Z,88.59
2022-12-13T05:07:53.390Z,94.11
2022-12-13T05:10:33.858Z,90.89
2022-12-13T05:12:54.354Z,89.77
2022-12-13T05:15:24.651Z,89.58
2022-12-13T05:17:55.258Z,89.78
2022-12-13T05:20:25.640Z,89.72
2022-12-13T05:22:56.455Z,89.78
2022-12-13T05:25:27.210Z,89.75
2022-12-13T05:27:57.926Z,89.67
2022-12-13T05:30:28.664Z,89.82
2022-12-13T05:32:59.208Z,89.86
2022-12-13T05:35:29.539Z,89.63
2022-12-13T05:38:00.365Z,89.71
2022-12-13T05:40:31.211Z,89.62
2022-12-13T05:43:02.057Z,89.78
2022-12-13T05:45:32.075Z,89.67
2022-12-13T05:48:02.376Z,89.53
2022-12-13T05:50:32.463Z,89.66
2022-12-13T05:53:02.937Z,89.56
2022-12-13T05:55:33.406Z,89.55
2022-12-13T05:58:03.563Z,89.47
2022-12-13T06:00:34.221Z,89.32
2022-12-13T06:03:04.567Z,89.30
2022-12-13T06:05:34.700Z,89.28
2022-12-13T06:08:24.351Z,89.37
2022-12-13T06:10:36.170Z,89.31
2022-12-13T06:13:22.000Z,89.49
2022-12-13T06:15:36.748Z,89.26
2022-12-13T06:18:07.691Z,89.10
2022-12-13T06:20:37.716Z,89.13
2022-12-13T06:23:07.869Z,89.43
2022-12-13T06:25:38.257Z,89.54
2022-12-13T06:28:08.961Z,89.42
2022-12-13T06:30:42.739Z,89.54
2022-12-13T06:33:10.011Z,89.64
2022-12-13T06:35:41.547Z,89.41
2022-12-13T06:38:11.859Z,89.36
2022-12-13T06:40:40.851Z,89.33
2022-12-13T06:43:10.963Z,89.25
2022-12-13T06:45:41.139Z,89.03
2022-12-13T06:48:16.228Z,88.73
2022-12-13T06:50:42.290Z,88.45
2022-12-13T06:53:12.879Z,88.15
2022-12-13T06:55:43.161Z,87.99
2022-12-13T06:58:13.384Z,88.20
2022-12-13T07:00:49.078Z,88.49
2022-12-13T07:03:13.806Z,93.35
2022-12-13T07:05:43.890Z,90.11
2022-12-13T07:08:14.645Z,89.28
2022-12-13T07:10:45.316Z,89.35
2022-12-13T07:13:15.418Z,89.51
2022-12-13T07:15:45.774Z,89.55
2022-12-13T07:18:15.842Z,89.64
2022-12-13T07:20:46.664Z,89.56
2022-12-13T07:23:17.399Z,89.69
2022-12-13T07:25:47.543Z,89.66
2022-12-13T07:28:18.356Z,89.55
2022-12-13T07:30:49.067Z,89.61
2022-12-13T07:33:22.158Z,89.62
2022-12-13T07:35:55.252Z,89.67
2022-12-13T07:38:20.058Z,89.56
2022-12-13T07:40:50.749Z,89.56
2022-12-13T07:43:21.836Z,89.58
2022-12-13T07:45:51.440Z,89.50
2022-12-13T07:48:22.275Z,89.39
2022-12-13T07:50:54.318Z,89.49
2022-12-13T07:53:23.242Z,89.42
2022-12-13T07:55:53.580Z,89.38
2022-12-13T07:58:24.389Z,89.24
2022-12-13T08:00:54.801Z,89.07
2022-12-13T08:03:26.458Z,89.11
2022-12-13T08:05:58.636Z,89.02
2022-12-13T08:08:30.918Z,88.92
2022-12-13T08:10:56.764Z,88.91
2022-12-13T08:13:27.379Z,89.01
2022-12-13T08:15:57.755Z,89.15
2022-12-13T08:18:27.827Z,89.00
2022-12-13T08:20:57.918Z,88.79
2022-12-13T08:23:28.588Z,88.66
2022-12-13T08:25:59.474Z,88.42
2022-12-13T08:28:29.731Z,88.43
2022-12-13T08:31:00.488Z,88.24
2022-12-13T08:33:31.348Z,88.11
2022-12-13T08:36:01.902Z,88.03
2022-12-13T08:38:32.801Z,87.89
2022-12-13T08:41:03.651Z,87.92
2022-12-13T08:43:34.436Z,87.85
2022-12-13T08:46:05.162Z,87.75
2022-12-13T08:48:35.358Z,87.82
2022-12-13T08:51:05.953Z,87.70
2022-12-13T08:53:40.811Z,87.57
2022-12-13T08:56:06.869Z,87.69
2022-12-13T08:58:37.791Z,87.87
2022-12-13T09:01:08.270Z,93.72
2022-12-13T09:03:38.876Z,89.78
2022-12-13T09:06:09.422Z,88.90
2022-12-13T09:08:40.171Z,88.62
2022-12-13T09:11:23.804Z,88.47
2022-12-13T09:13:43.470Z,88.26
2022-12-13T09:16:14.252Z,88.35
2022-12-13T09:18:41.532Z,88.16
2022-12-13T09:21:12.401Z,88.36
2022-12-13T09:23:46.021Z,88.73
2022-12-13T09:26:15.055Z,89.06
2022-12-13T09:28:43.264Z,89.01
2022-12-13T09:31:13.621Z,88.95
2022-12-13T09:33:43.745Z,88.99
2022-12-13T09:36:14.152Z,89.00
2022-12-13T09:38:44.663Z,89.26
2022-12-13T09:41:19.804Z,89.12
2022-12-13T09:43:45.290Z,89.15
2022-12-13T09:46:23.001Z,89.26
2022-12-13T09:48:48.403Z,89.28
2022-12-13T09:51:18.208Z,89.42
2022-12-13T09:53:46.616Z,89.42
2022-12-13T09:56:16.809Z,89.39
2022-12-13T09:58:47.295Z,89.53
2022-12-13T10:01:23.421Z,89.64
2022-12-13T10:03:48.158Z,89.63
2022-12-13T10:06:23.095Z,89.70
2022-12-13T10:08:49.393Z,88.70
2022-12-13T10:11:19.377Z,88.85
2022-12-13T10:13:49.664Z,89.09
2022-12-13T10:16:23.405Z,88.90
2022-12-13T10:18:50.371Z,89.07
2022-12-13T10:21:20.406Z,88.59
2022-12-13T10:24:23.727Z,88.12
2022-12-13T10:26:24.381Z,88.56
2022-12-13T10:28:51.862Z,88.97
2022-12-13T10:31:22.200Z,89.24
2022-12-13T10:33:52.847Z,88.96
2022-12-13T10:36:26.491Z,89.10
2022-12-13T10:38:53.741Z,89.20
2022-12-13T10:41:24.515Z,89.36
2022-12-13T10:43:54.648Z,89.30
2022-12-13T10:46:25.209Z,89.55
2022-12-13T10:48:55.541Z,89.68
2022-12-13T10:51:25.823Z,89.62
2022-12-13T10:53:56.677Z,89.55
2022-12-13T10:56:27.198Z,89.60
2022-12-13T10:58:57.770Z,89.45
2022-12-13T11:01:28.465Z,89.58
2022-12-13T11:04:02.408Z,89.37
2022-12-13T11:06:29.306Z,89.15
2022-12-13T11:09:01.593Z,89.25
2022-12-13T11:11:30.510Z,89.24
2022-12-13T11:14:01.229Z,89.14
2022-12-13T11:16:31.951Z,89.21
2022-12-13T11:19:02.595Z,89.17
2022-12-13T11:21:32.786Z,89.30
2022-12-13T11:24:03.398Z,89.65
2022-12-13T11:26:34.038Z,89.52
2022-12-13T11:29:04.121Z,89.54
2022-12-13T11:31:34.204Z,89.44
2022-12-13T11:34:04.373Z,89.41
2022-12-13T11:36:34.516Z,89.64
2022-12-13T11:39:04.463Z,89.49
2022-12-13T11:41:35.350Z,89.50
2022-12-13T11:44:09.028Z,89.89
2022-12-13T11:46:36.596Z,89.90
2022-12-13T11:49:07.026Z,93.60
2022-12-13T11:51:37.415Z,91.21
2022-12-13T11:54:08.121Z,90.90
2022-12-13T11:56:38.950Z,90.59
2022-12-13T11:59:19.087Z,90.95
2022-12-13T12:01:39.594Z,91.10
2022-12-13T12:04:09.763Z,91.09
2022-12-13T12:06:40.252Z,91.40
2022-12-13T12:09:10.628Z,91.46
2022-12-13T12:11:40.914Z,91.44
2022-12-13T12:14:11.587Z,90.92
2022-12-13T12:16:42.458Z,90.36
2022-12-13T12:19:13.003Z,90.18
2022-12-13T12:22:12.714Z,90.02
2022-12-13T12:24:13.164Z,89.85
2022-12-13T12:26:43.245Z,89.90
2022-12-13T12:29:13.391Z,90.30
2022-12-13T12:31:51.061Z,90.42
2022-12-13T12:34:14.014Z,90.36
2022-12-13T12:36:44.305Z,90.29
2022-12-13T12:39:14.366Z,90.69
2022-12-13T12:41:45.467Z,90.78
2022-12-13T12:44:15.269Z,90.51
2022-12-13T12:49:16.282Z,89.64
2022-12-13T12:51:46.182Z,89.31
2022-12-13T12:54:16.335Z,88.92
2022-12-13T12:56:47.131Z,89.45
2022-12-13T12:59:17.227Z,89.45
2022-12-13T13:01:47.604Z,89.65
2022-12-13T13:04:22.407Z,89.47
2022-12-13T13:06:49.354Z,88.86
2022-12-13T13:09:24.459Z,89.50
2022-12-13T13:11:48.717Z,89.39
2022-12-13T13:14:19.899Z,89.43
2022-12-13T13:16:49.961Z,90.35
2022-12-13T13:19:25.633Z,90.95
2022-12-13T13:21:50.988Z,91.08
2022-12-13T13:24:21.768Z,90.41
2022-12-13T13:26:51.816Z,89.50
2022-12-13T13:29:27.324Z,88.86
2022-12-13T13:31:56.575Z,87.53
2022-12-13T13:34:23.358Z,88.82
2022-12-13T13:36:53.622Z,89.33
2022-12-13T13:39:23.679Z,89.57
2022-12-13T13:41:53.837Z,90.02
2022-12-13T13:44:24.536Z,96.60
2022-12-13T13:46:54.695Z,93.00
2022-12-13T13:49:25.196Z,91.35
2022-12-13T13:52:24.349Z,90.36
2022-12-13T13:54:25.758Z,89.39
2022-12-13T13:56:56.192Z,89.48
2022-12-13T13:59:26.354Z,89.81
2022-12-13T14:02:01.382Z,89.84
2022-12-13T14:04:27.303Z,89.34
2022-12-13T14:07:00.666Z,89.13
2022-12-13T14:09:28.908Z,89.20
2022-12-13T14:11:58.853Z,89.40
2022-12-13T14:14:29.020Z,89.33
2022-12-13T14:16:59.971Z,89.51
2022-12-13T14:19:30.432Z,89.56
2022-12-13T14:22:00.609Z,89.51
2022-12-13T14:24:31.323Z,89.64
2022-12-13T14:27:01.382Z,89.46
2022-12-13T14:29:31.779Z,89.25
2022-12-13T14:32:02.578Z,89.46
2022-12-13T14:34:33.083Z,89.40
2022-12-13T14:37:03.403Z,89.54
2022-12-13T14:39:34.023Z,89.49
2022-12-13T14:42:04.327Z,89.29
2022-12-13T14:44:35.094Z,89.46
2022-12-13T14:47:05.873Z,89.37
2022-12-13T14:49:36.112Z,89.37
2022-12-13T14:52:06.838Z,89.02
2022-12-13T14:54:37.486Z,89.13
2022-12-13T14:57:07.622Z,89.30
2022-12-13T14:59:38.247Z,89.34
2022-12-13T15:02:08.441Z,89.21
2022-12-13T15:04:38.875Z,88.99
2022-12-13T15:07:09.639Z,88.96
2022-12-13T15:09:40.122Z,88.90
2022-12-13T15:12:15.381Z,88.87
2022-12-13T15:14:41.261Z,88.75
2022-12-13T15:17:12.139Z,88.55
2022-12-13T15:19:48.869Z,88.62
2022-12-13T15:22:13.028Z,88.71
2022-12-13T15:24:43.124Z,88.62
2022-12-13T15:27:13.813Z,88.59
2022-12-13T15:29:44.597Z,88.80
2022-12-13T15:32:14.721Z,88.37
2022-12-13T15:34:45.363Z,88.27
2022-12-13T15:37:29.524Z,88.17
2022-12-13T15:39:48.094Z,88.07
2022-12-13T15:42:16.560Z,88.22
2022-12-13T15:44:47.949Z,88.05
2022-12-13T15:47:28.172Z,88.23
2022-12-13T15:49:47.343Z,87.64
2022-12-13T15:52:17.278Z,87.54
2022-12-13T15:54:48.182Z,87.28
2022-12-13T15:57:18.181Z,87.24
2022-12-13T15:59:48.388Z,87.61
2022-12-13T16:02:19.127Z,87.46
2022-12-13T16:04:49.418Z,87.78
2022-12-13T16:07:19.768Z,92.08
2022-12-13T16:09:50.720Z,89.14
2022-12-13T16:12:20.991Z,88.20
2022-12-13T16:14:51.315Z,87.88
2022-12-13T16:17:21.902Z,87.71
2022-12-13T16:19:52.603Z,87.32
2022-12-13T16:22:22.916Z,87.28
2022-12-13T16:24:53.201Z,87.28
2022-12-13T16:27:23.707Z,87.47
2022-12-13T16:29:54.302Z,87.40
2022-12-13T16:32:24.636Z,87.56
2022-12-13T16:34:54.951Z,87.52
2022-12-13T16:37:27.189Z,87.58
2022-12-13T16:39:56.419Z,87.56
2022-12-13T16:42:27.027Z,87.63
2022-12-13T16:45:18.121Z,87.61
2022-12-13T16:47:40.419Z,87.60
2022-12-13T16:49:58.162Z,87.71
2022-12-13T16:52:28.583Z,87.67
2022-12-13T16:54:59.171Z,87.58
2022-12-13T16:57:29.164Z,87.67
2022-12-13T16:59:59.580Z,87.59
2022-12-13T17:02:29.827Z,86.80
2022-12-13T17:05:00.263Z,86.97
2022-12-13T17:07:30.654Z,87.38
2022-12-13T17:10:01.375Z,87.49
2022-12-13T17:12:31.713Z,87.44
2022-12-13T17:15:02.209Z,87.33
2022-12-13T17:17:32.913Z,87.01
2022-12-13T17:20:03.148Z,86.93
2022-12-13T17:22:33.330Z,86.65
2022-12-13T17:25:03.644Z,86.83
2022-12-13T17:27:34.227Z,87.05
2022-12-13T17:30:05.002Z,86.88
2022-12-13T17:32:35.218Z,86.87
2022-12-13T17:35:06.029Z,86.78
2022-12-13T17:37:36.195Z,86.46
2022-12-13T17:40:06.699Z,86.29
2022-12-13T17:42:37.119Z,86.56
2022-12-13T17:45:07.682Z,86.73
2022-12-13T17:47:38.032Z,86.49
2022-12-13T17:50:08.245Z,86.38
2022-12-13T17:52:38.993Z,86.24
2022-12-13T17:55:13.560Z,86.34
2022-12-13T17:57:39.885Z,86.64
2022-12-13T18:00:10.704Z,86.42
2022-12-13T18:02:41.530Z,85.88
2022-12-13T18:05:17.620Z,85.67
2022-12-13T18:07:41.722Z,85.60
2022-12-13T18:10:12.530Z,85.89
2022-12-13T18:12:42.728Z,85.54
2022-12-13T18:15:13.055Z,85.74
2022-12-13T18:18:10.240Z,84.73
2022-12-13T18:20:14.169Z,84.82
2022-12-13T18:22:46.981Z,85.37
2022-12-13T18:25:14.365Z,85.29
2022-12-13T18:27:44.299Z,84.06
2022-12-13T18:30:15.014Z,83.88
2022-12-13T18:32:45.778Z,84.17
2022-12-13T18:35:16.399Z,83.99
2022-12-13T18:37:46.437Z,83.92
2022-12-13T18:40:17.206Z,83.84
2022-12-13T18:42:47.925Z,83.82
2022-12-13T18:45:18.333Z,84.20
2022-12-13T18:47:48.921Z,84.27
2022-12-13T18:50:19.812Z,84.33
2022-12-13T18:52:49.939Z,84.82
2022-12-13T18:55:20.751Z,84.45
2022-12-13T18:57:50.970Z,84.48
2022-12-13T19:00:21.021Z,84.71
2022-12-13T19:02:51.439Z,85.25
2022-12-13T19:05:21.557Z,85.68
2022-12-13T19:07:51.818Z,85.80
2022-12-13T19:10:22.403Z,86.03
2022-12-13T19:12:52.435Z,86.23
2022-12-13T19:15:23.062Z,86.47
2022-12-13T19:17:53.363Z,94.56
2022-12-13T19:20:23.908Z,89.56
2022-12-13T19:22:54.466Z,87.48
2022-12-13T19:25:24.529Z,86.70
2022-12-13T19:27:54.727Z,86.49
2022-12-13T19:30:24.903Z,85.96
2022-12-13T19:32:55.791Z,86.14
2022-12-13T19:35:26.258Z,85.95
2022-12-13T19:37:56.465Z,86.65
2022-12-13T19:40:26.577Z,87.18
2022-12-13T19:42:56.910Z,87.42
2022-12-13T19:45:26.947Z,87.19
2022-12-13T19:47:57.818Z,87.34
2022-12-13T19:50:28.538Z,87.01
2022-12-13T19:52:59.302Z,86.16
2022-12-13T19:55:29.297Z,86.68
2022-12-13T19:57:59.700Z,87.13
2022-12-13T20:00:30.348Z,87.34
2022-12-13T20:03:01.110Z,87.50
2022-12-13T20:05:31.751Z,87.61
2022-12-13T20:08:01.980Z,87.64
2022-12-13T20:10:32.908Z,87.74
2022-12-13T20:13:02.988Z,87.67
2022-12-13T20:15:33.797Z,87.60
2022-12-13T20:18:04.120Z,87.68
2022-12-13T20:21:02.370Z,87.50
2022-12-13T20:23:04.831Z,87.49
2022-12-13T20:25:35.675Z,87.40
2022-12-13T20:28:05.715Z,87.38
2022-12-13T20:30:36.040Z,87.30
2022-12-13T20:33:06.689Z,87.11
2022-12-13T20:35:54.233Z,87.05
2022-12-13T20:38:07.595Z,87.15
2022-12-13T20:40:38.058Z,87.04
2022-12-13T20:43:08.584Z,87.00
2022-12-13T20:45:38.799Z,87.16
2022-12-13T20:48:09.325Z,87.40
2022-12-13T20:50:40.189Z,87.32
2022-12-13T20:53:10.521Z,87.25
2022-12-13T20:55:41.310Z,86.80
2022-12-13T20:58:11.364Z,86.68
2022-12-13T21:00:41.580Z,87.12
2022-12-13T21:03:11.631Z,86.90
2022-12-13T21:05:42.466Z,87.18
2022-12-13T21:08:12.598Z,87.43
2022-12-13T21:10:42.671Z,87.30
2022-12-13T21:13:13.098Z,87.21
2022-12-13T21:15:43.177Z,87.32
2022-12-13T21:18:13.819Z,87.40
2022-12-13T21:20:44.142Z,87.47
2022-12-13T21:23:14.398Z,87.00
2022-12-13T21:25:45.242Z,86.35
2022-12-13T21:28:16.072Z,87.02
2022-12-13T21:30:46.432Z,86.83
2022-12-13T21:33:16.491Z,86.85
2022-12-13T21:35:46.611Z,86.69
2022-12-13T21:38:16.814Z,87.02
2022-12-13T21:40:47.380Z,87.11
2022-12-13T21:43:17.680Z,85.78
2022-12-13T21:45:48.748Z,85.72
2022-12-13T21:48:19.149Z,86.55
2022-12-13T21:50:49.684Z,86.72
2022-12-13T21:53:19.719Z,85.97
2022-12-13T21:55:50.305Z,85.39
2022-12-13T21:58:20.638Z,85.40
2022-12-13T22:00:51.396Z,85.79
2022-12-13T22:03:22.166Z,85.41
2022-12-13T22:05:52.456Z,85.79
2022-12-13T22:08:22.419Z,86.00
2022-12-13T22:10:52.730Z,86.20
2022-12-13T22:13:23.162Z,86.04
2022-12-13T22:15:53.190Z,86.27
2022-12-13T22:18:23.757Z,85.84
2022-12-13T22:20:53.383Z,85.75
2022-12-13T22:23:23.710Z,85.89
2022-12-13T22:25:53.571Z,85.79
2022-12-13T22:28:24.003Z,85.88
2022-12-13T22:30:53.708Z,85.80
2022-12-13T22:33:23.804Z,85.76
2022-12-13T22:35:54.018Z,85.80
2022-12-13T22:38:25.234Z,85.87
2022-12-13T22:40:55.488Z,85.97
2022-12-13T22:43:26.107Z,86.03
2022-12-13T22:45:56.446Z,85.98
2022-12-13T22:48:26.790Z,85.81
2022-12-13T22:50:57.384Z,85.74
2022-12-13T22:53:27.818Z,85.75
2022-12-13T22:55:58.458Z,85.46
2022-12-13T22:58:28.791Z,84.74
2022-12-13T23:00:58.900Z,85.14
2022-12-13T23:03:29.614Z,85.39
2022-12-13T23:05:59.548Z,85.62
2022-12-13T23:08:29.872Z,85.62
2022-12-13T23:11:00.330Z,85.60
2022-12-13T23:13:30.601Z,85.63
2022-12-13T23:16:00.848Z,85.76
2022-12-13T23:18:31.598Z,85.76
2022-12-13T23:21:02.162Z,85.68
2022-12-13T23:23:32.140Z,85.72
2022-12-13T23:26:02.661Z,85.56
2022-12-13T23:28:33.160Z,85.35
2022-12-13T23:31:03.390Z,85.58
2022-12-13T23:33:33.865Z,85.97
2022-12-13T23:36:09.489Z,86.14
2022-12-13T23:38:35.416Z,90.36
2022-12-13T23:41:06.033Z,87.41
2022-12-13T23:43:36.559Z,86.42
2022-12-13T23:46:07.154Z,86.02
2022-12-13T23:48:37.204Z,86.55
2022-12-13T23:51:08.016Z,86.63
2022-12-13T23:53:38.493Z,86.70
2022-12-13T23:56:08.802Z,86.44
2022-12-13T23:58:39.136Z,86.11
